createdAt,value
2022-09-11T00:00:06.812Z,5.18
2022-09-11T00:02:42.702Z,3.30
2022-09-11T00:05:13.099Z,2.22
2022-09-11T00:07:42.932Z,5.10
2022-09-11T00:10:13.630Z,3.80
2022-09-11T00:12:44.527Z,2.72
2022-09-11T00:15:14.610Z,1.77
2022-09-11T00:17:44.457Z,3.42
2022-09-11T00:20:14.869Z,7.00
2022-09-11T00:22:45.063Z,2.10
2022-09-11T00:25:15.581Z,4.60
2022-09-11T00:27:45.671Z,2.42
2022-09-11T00:30:15.575Z,3.78
2022-09-11T00:32:45.484Z,2.60
2022-09-11T00:35:15.916Z,3.63
2022-09-11T00:37:46.405Z,5.07
2022-09-11T00:40:17.811Z,5.95
2022-09-11T00:42:54.728Z,5.03
2022-09-11T00:45:27.777Z,4.30
2022-09-11T00:48:01.384Z,3.42
2022-09-11T00:50:33.932Z,4.40
2022-09-11T00:53:11.126Z,3.50
2022-09-11T00:55:46.416Z,3.95
2022-09-11T00:58:22.501Z,4.53
2022-09-11T01:00:55.653Z,2.25
2022-09-11T01:03:28.036Z,2.38
2022-09-11T01:05:58.687Z,1.92
2022-09-11T01:08:28.991Z,5.05
2022-09-11T01:11:22.150Z,6.00
2022-09-11T01:14:18.664Z,2.72
2022-09-11T01:17:25.887Z,1.98
2022-09-11T01:19:56.597Z,6.97
2022-09-11T01:22:42.042Z,2.25
2022-09-11T01:25:32.954Z,2.92
2022-09-11T01:28:14.847Z,3.53
2022-09-11T01:30:58.181Z,4.13
2022-09-11T01:33:50.856Z,1.92
2022-09-11T01:36:37.155Z,2.55
2022-09-11T01:39:07.667Z,4.90
2022-09-11T01:41:49.767Z,5.70
2022-09-11T01:44:27.297Z,4.70
2022-09-11T01:46:57.952Z,9.27
2022-09-11T01:49:38.012Z,9.68
2022-09-11T01:52:18.115Z,9.15
2022-09-11T01:54:54.644Z,8.05
2022-09-11T01:57:38.227Z,8.27
2022-09-11T02:00:12.102Z,8.55
2022-09-11T02:02:54.209Z,8.82
2022-09-11T02:05:50.273Z,12.30
2022-09-11T02:08:43.148Z,12.10
2022-09-11T02:11:15.476Z,13.18
2022-09-11T02:13:52.272Z,15.80
2022-09-11T02:16:23.015Z,15.73
2022-09-11T02:19:01.996Z,14.40
2022-09-11T02:21:33.547Z,16.80
2022-09-11T02:24:05.287Z,19.20
2022-09-11T02:26:42.703Z,18.42
2022-09-11T02:29:15.282Z,11.75
2022-09-11T02:31:45.559Z,12.27
2022-09-11T02:34:17.161Z,14.65
2022-09-11T02:37:05.193Z,13.55
2022-09-11T02:40:16.211Z,10.75
2022-09-11T02:45:39.382Z,13.18
2022-09-11T02:48:27.942Z,11.30
2022-09-11T02:51:14.199Z,11.55
2022-09-11T02:54:19.230Z,11.07
2022-09-11T02:57:08.917Z,11.38
2022-09-11T02:59:50.467Z,12.70
2022-09-11T03:02:21.415Z,12.40
2022-09-11T03:04:52.682Z,14.63
2022-09-11T03:07:24.194Z,12.20
2022-09-11T03:09:54.673Z,13.50
2022-09-11T03:12:28.384Z,11.15
2022-09-11T03:14:59.161Z,11.70
2022-09-11T03:17:30.653Z,14.15
2022-09-11T03:20:00.746Z,12.63
2022-09-11T03:22:33.153Z,11.77
2022-09-11T03:25:03.680Z,11.02
2022-09-11T03:27:34.665Z,14.40
2022-09-11T03:30:04.605Z,11.90
2022-09-11T03:32:34.610Z,11.38
2022-09-11T03:35:04.887Z,10.13
2022-09-11T03:37:34.964Z,9.65
2022-09-11T03:40:06.250Z,12.65
2022-09-11T03:42:36.661Z,11.80
2022-09-11T03:45:07.511Z,9.80
2022-09-11T03:47:38.508Z,9.43
2022-09-11T03:50:12.618Z,9.20
2022-09-11T03:52:44.585Z,11.60
2022-09-11T03:55:15.072Z,8.45
2022-09-11T03:57:45.781Z,8.23
2022-09-11T04:00:15.857Z,8.10
2022-09-11T04:02:51.937Z,8.55
2022-09-11T04:05:48.420Z,11.35
2022-09-11T04:08:18.802Z,12.98
2022-09-11T04:10:49.332Z,8.57
2022-09-11T04:13:19.537Z,8.18
2022-09-11T04:15:50.608Z,11.02
2022-09-11T04:18:20.964Z,9.70
2022-09-11T04:20:50.893Z,8.68
2022-09-11T04:23:21.329Z,8.18
2022-09-11T04:25:52.333Z,13.43
2022-09-11T04:28:23.621Z,9.60
2022-09-11T04:30:54.369Z,10.52
2022-09-11T04:33:25.923Z,8.93
2022-09-11T04:35:56.518Z,9.02
2022-09-11T04:38:26.764Z,6.88
2022-09-11T04:40:57.047Z,9.68
2022-09-11T04:43:27.148Z,9.45
2022-09-11T04:46:08.178Z,15.45
2022-09-11T04:48:39.882Z,7.93
2022-09-11T04:51:11.202Z,8.90
2022-09-11T04:53:41.578Z,7.43
2022-09-11T04:56:15.954Z,9.02
2022-09-11T04:58:58.535Z,8.45
2022-09-11T05:01:33.159Z,6.82
2022-09-11T05:04:03.631Z,6.95
2022-09-11T05:06:34.596Z,9.80
2022-09-11T05:09:10.273Z,7.32
2022-09-11T05:11:40.716Z,7.47
2022-09-11T05:14:12.868Z,8.32
2022-09-11T05:16:46.280Z,6.95
2022-09-11T05:19:19.100Z,6.65
2022-09-11T05:21:50.133Z,8.43
2022-09-11T05:24:21.119Z,4.35
2022-09-11T05:26:51.191Z,6.65
2022-09-11T05:29:21.480Z,5.82
2022-09-11T05:32:02.806Z,9.13
2022-09-11T05:34:33.238Z,7.60
2022-09-11T05:37:03.600Z,3.72
2022-09-11T05:39:39.231Z,3.90
2022-09-11T05:42:11.496Z,5.70
2022-09-11T05:44:45.400Z,5.40
2022-09-11T05:47:16.034Z,4.60
2022-09-11T05:49:48.923Z,4.82
2022-09-11T05:52:19.882Z,4.18
2022-09-11T05:54:51.173Z,7.45
2022-09-11T05:57:21.878Z,6.32
2022-09-11T05:59:53.531Z,4.05
2022-09-11T06:02:24.295Z,6.80
2022-09-11T06:07:28.332Z,3.30
2022-09-11T06:10:02.832Z,2.72
2022-09-11T06:12:36.292Z,3.38
2022-09-11T06:15:20.300Z,8.57
2022-09-11T06:17:59.407Z,5.50
2022-09-11T06:20:29.943Z,5.30
2022-09-11T06:23:04.120Z,3.35
2022-09-11T06:25:37.974Z,4.95
2022-09-11T06:28:08.681Z,5.40
2022-09-11T06:30:39.038Z,8.63
2022-09-11T06:33:12.354Z,5.35
2022-09-11T06:35:43.203Z,7.53
2022-09-11T06:38:13.439Z,4.45
2022-09-11T06:40:43.674Z,4.50
2022-09-11T06:43:16.034Z,9.85
2022-09-11T06:45:48.449Z,10.68
2022-09-11T06:48:23.432Z,4.80
2022-09-11T06:50:55.658Z,8.27
2022-09-11T06:53:26.451Z,9.63
2022-09-11T06:56:01.622Z,9.93
2022-09-11T06:58:33.140Z,5.85
2022-09-11T07:01:14.592Z,7.90
2022-09-11T07:03:54.541Z,4.43
2022-09-11T07:06:28.728Z,9.93
2022-09-11T07:09:04.460Z,8.30
2022-09-11T07:11:48.035Z,6.70
2022-09-11T07:14:24.997Z,6.88
2022-09-11T07:17:01.982Z,6.45
2022-09-11T07:19:32.115Z,6.10
2022-09-11T07:22:02.433Z,7.05
2022-09-11T07:24:34.412Z,7.32
2022-09-11T07:27:05.101Z,9.32
2022-09-11T07:29:39.113Z,6.43
2022-09-11T07:32:11.273Z,7.03
2022-09-11T07:34:42.748Z,9.32
2022-09-11T07:37:13.799Z,5.93
2022-09-11T07:39:43.840Z,5.25
2022-09-11T07:42:21.147Z,5.63
2022-09-11T07:44:52.010Z,8.55
2022-09-11T07:47:22.308Z,8.38
2022-09-11T07:49:54.486Z,6.35
2022-09-11T07:52:25.688Z,12.68
2022-09-11T07:55:02.809Z,4.40
2022-09-11T07:57:36.012Z,5.57
2022-09-11T08:00:11.449Z,9.75
2022-09-11T08:02:50.796Z,5.00
2022-09-11T08:05:31.471Z,10.80
2022-09-11T08:08:01.845Z,8.15
2022-09-11T08:10:33.209Z,11.02
2022-09-11T08:13:09.539Z,10.32
2022-09-11T08:15:49.076Z,10.95
2022-09-11T08:18:21.064Z,6.15
2022-09-11T08:20:52.580Z,8.55
2022-09-11T08:23:23.675Z,6.03
2022-09-11T08:25:55.409Z,11.05
2022-09-11T08:28:25.473Z,8.07
2022-09-11T08:31:01.381Z,8.80
2022-09-11T08:33:34.498Z,5.82
2022-09-11T08:36:08.184Z,4.07
2022-09-11T08:38:41.467Z,4.82
2022-09-11T08:41:14.121Z,6.88
2022-09-11T08:43:54.227Z,3.90
2022-09-11T08:46:32.636Z,7.32
2022-09-11T08:49:20.350Z,6.75
2022-09-11T08:51:52.660Z,4.82
2022-09-11T08:54:36.188Z,4.82
2022-09-11T08:57:55.847Z,7.53
2022-09-11T09:00:59.128Z,5.95
2022-09-11T09:03:57.593Z,5.90
2022-09-11T09:07:03.418Z,6.60
2022-09-11T09:09:47.416Z,5.82
2022-09-11T09:12:26.228Z,11.57
2022-09-11T09:15:29.326Z,8.95
2022-09-11T09:54:03.781Z,6.22
2022-09-11T09:56:38.871Z,4.47
2022-09-11T09:59:19.495Z,4.50
2022-09-11T10:01:53.163Z,5.68
2022-09-11T10:04:31.605Z,9.25
2022-09-11T10:07:12.679Z,9.23
2022-09-11T10:09:52.879Z,7.95
2022-09-11T10:12:33.322Z,8.30
2022-09-11T10:15:05.164Z,8.18
2022-09-11T10:17:38.308Z,5.88
2022-09-11T10:20:27.851Z,5.93
2022-09-11T10:22:58.682Z,6.88
2022-09-11T10:25:31.252Z,8.45
2022-09-11T10:31:00.596Z,7.25
2022-09-11T10:33:31.337Z,13.23
2022-09-11T10:36:05.439Z,11.75
2022-09-11T10:38:47.263Z,11.32
2022-09-11T10:41:27.316Z,9.70
2022-09-11T10:44:15.631Z,8.18
2022-09-11T10:46:47.250Z,11.38
2022-09-11T10:49:25.063Z,8.48
2022-09-11T10:52:23.552Z,7.00
2022-09-11T10:55:09.721Z,11.23
2022-09-11T10:57:59.143Z,8.50
2022-09-11T11:00:33.870Z,9.85
2022-09-11T11:03:26.765Z,6.00
2022-09-11T11:06:20.586Z,5.47
2022-09-11T11:09:07.542Z,7.38
2022-09-11T11:11:57.283Z,9.00
2022-09-11T11:14:46.049Z,9.77
2022-09-11T11:17:32.955Z,7.80
2022-09-11T11:20:27.830Z,9.65
2022-09-11T11:23:16.730Z,9.82
2022-09-11T11:26:13.127Z,9.38
2022-09-11T11:29:23.099Z,8.63
2022-09-11T11:32:31.486Z,8.20
2022-09-11T11:35:33.267Z,7.43
2022-09-11T11:38:29.333Z,12.15
2022-09-11T11:41:08.487Z,5.88
2022-09-11T11:46:13.819Z,8.32
2022-09-11T11:51:30.686Z,7.07
2022-09-11T11:54:27.091Z,6.80
2022-09-11T11:57:10.917Z,5.72
2022-09-11T12:00:09.721Z,5.32
2022-09-11T12:02:58.558Z,4.65
2022-09-11T12:05:36.279Z,5.22
2022-09-11T12:08:12.854Z,7.63
2022-09-11T12:10:57.447Z,8.73
2022-09-11T12:13:34.345Z,6.55
2022-09-11T12:16:11.443Z,8.95
2022-09-11T12:18:44.589Z,7.68
2022-09-11T12:21:26.275Z,7.38
2022-09-11T12:24:00.462Z,7.55
2022-09-11T12:26:32.811Z,5.85
2022-09-11T12:29:15.758Z,6.68
2022-09-11T12:31:52.402Z,5.25
2022-09-11T12:34:49.117Z,3.10
2022-09-11T12:37:35.058Z,2.80
2022-09-11T12:40:33.920Z,5.50
2022-09-11T12:43:29.900Z,4.35
2022-09-11T12:46:00.758Z,4.25
2022-09-11T12:48:40.136Z,3.22
2022-09-11T12:51:26.830Z,3.92
2022-09-11T12:54:04.176Z,4.38
2022-09-11T12:56:39.959Z,5.75
2022-09-11T12:59:12.231Z,4.80
2022-09-11T13:01:48.206Z,3.88
2022-09-11T13:04:23.828Z,3.78
2022-09-11T13:06:59.900Z,4.00
2022-09-11T13:09:34.532Z,4.45
2022-09-11T13:12:25.804Z,4.38
2022-09-11T13:15:00.059Z,3.17
2022-09-11T13:17:47.640Z,4.43
2022-09-11T13:20:18.339Z,3.95
2022-09-11T13:22:48.984Z,15.02
2022-09-11T13:25:20.738Z,4.57
2022-09-11T13:27:52.476Z,3.90
2022-09-11T13:30:26.003Z,2.75
2022-09-11T13:33:09.726Z,3.42
2022-09-11T13:35:41.136Z,3.88
2022-09-11T13:38:25.674Z,4.72
2022-09-11T13:41:05.141Z,3.53
2022-09-11T13:43:45.421Z,4.13
2022-09-11T13:46:18.523Z,6.65
2022-09-11T13:48:52.798Z,5.10
2022-09-11T13:51:28.555Z,3.95
2022-09-11T13:54:18.566Z,5.65
2022-09-11T13:57:34.509Z,3.30
2022-09-11T14:00:05.471Z,6.70
2022-09-11T14:02:53.725Z,4.13
2022-09-11T14:05:29.655Z,5.20
2022-09-11T14:08:09.040Z,6.35
2022-09-11T14:10:45.350Z,3.83
2022-09-11T14:13:19.245Z,6.28
2022-09-11T14:15:52.860Z,6.05
2022-09-11T14:18:35.328Z,4.88
2022-09-11T14:21:14.796Z,6.22
2022-09-11T14:23:53.769Z,11.23
2022-09-11T14:26:42.405Z,6.25
2022-09-11T14:29:29.292Z,5.72
2022-09-11T14:32:30.891Z,8.27
2022-09-11T14:35:08.293Z,5.05
2022-09-11T14:37:46.844Z,5.43
2022-09-11T14:40:20.180Z,6.43
2022-09-11T14:42:51.113Z,6.47
2022-09-11T14:45:27.357Z,4.10
2022-09-11T14:47:57.739Z,7.50
2022-09-11T14:50:27.716Z,8.55
2022-09-11T14:52:58.031Z,8.80
2022-09-11T14:55:28.387Z,9.38
2022-09-11T14:57:58.577Z,9.07
2022-09-11T15:00:28.539Z,8.93
2022-09-11T15:02:58.477Z,8.93
2022-09-11T15:05:29.446Z,6.38
2022-09-11T15:08:00.455Z,10.63
2022-09-11T15:10:31.010Z,6.40
2022-09-11T15:13:01.156Z,7.75
2022-09-11T15:15:32.732Z,6.22
2022-09-11T15:18:03.326Z,7.68
2022-09-11T15:20:33.596Z,7.18
2022-09-11T15:23:03.645Z,7.35
2022-09-11T15:25:34.016Z,6.18
2022-09-11T15:28:04.107Z,6.70
2022-09-11T15:30:34.613Z,8.18
2022-09-11T15:33:05.907Z,7.75
2022-09-11T15:35:36.090Z,8.02
2022-09-11T15:38:06.872Z,8.20
2022-09-11T15:40:37.709Z,9.25
2022-09-11T15:43:08.046Z,7.53
2022-09-11T15:45:44.862Z,7.13
2022-09-11T15:48:15.926Z,7.97
2022-09-11T15:50:46.226Z,6.28
2022-09-11T15:53:16.388Z,12.43
2022-09-11T15:55:46.670Z,6.15
2022-09-11T15:58:16.504Z,6.38
2022-09-11T16:00:48.182Z,5.88
2022-09-11T16:03:18.917Z,6.50
2022-09-11T16:05:49.372Z,6.05
2022-09-11T16:08:19.279Z,5.43
2022-09-11T16:10:49.162Z,6.50
2022-09-11T16:13:21.150Z,5.05
2022-09-11T16:15:51.742Z,7.07
2022-09-11T16:18:22.080Z,7.32
2022-09-11T16:21:02.313Z,9.52
2022-09-11T16:23:32.617Z,7.20
2022-09-11T16:26:07.793Z,7.55
2022-09-11T16:28:40.130Z,6.47
2022-09-11T16:31:11.095Z,14.32
2022-09-11T16:33:48.972Z,8.68
2022-09-11T16:36:23.844Z,8.63
2022-09-11T16:38:56.052Z,9.60
2022-09-11T16:41:26.796Z,8.35
2022-09-11T16:43:56.740Z,11.32
2022-09-11T16:46:28.324Z,9.85
2022-09-11T16:49:01.841Z,10.43
2022-09-11T16:51:32.999Z,12.18
2022-09-11T16:54:05.313Z,8.13
2022-09-11T16:56:35.527Z,8.10
2022-09-11T16:59:06.901Z,9.10
2022-09-11T17:01:38.257Z,9.30
2022-09-11T17:04:08.514Z,8.23
2022-09-11T17:06:38.659Z,7.97
2022-09-11T17:09:08.956Z,8.88
2022-09-11T17:11:39.523Z,8.43
2022-09-11T17:14:09.578Z,7.80
2022-09-11T17:16:40.306Z,9.00
2022-09-11T17:19:12.758Z,8.65
2022-09-11T17:21:43.287Z,9.35
2022-09-11T17:24:14.118Z,8.13
2022-09-11T17:26:44.360Z,11.43
2022-09-11T17:29:14.771Z,11.20
2022-09-11T17:31:45.008Z,11.02
2022-09-11T17:34:15.920Z,9.60
2022-09-11T17:36:46.426Z,10.70
2022-09-11T17:39:16.333Z,8.43
2022-09-11T17:41:46.480Z,8.75
2022-09-11T17:44:16.731Z,13.00
2022-09-11T17:46:47.170Z,12.85
2022-09-11T17:49:17.085Z,10.50
2022-09-11T17:51:47.528Z,8.65
2022-09-11T17:54:18.171Z,8.70
2022-09-11T17:56:48.730Z,8.60
2022-09-11T17:59:19.702Z,14.20
2022-09-11T18:01:51.161Z,8.27
2022-09-11T18:04:21.919Z,8.63
2022-09-11T18:06:52.480Z,10.10
2022-09-11T18:09:22.386Z,12.45
2022-09-11T18:11:56.170Z,8.32
2022-09-11T18:14:28.634Z,9.25
2022-09-11T18:19:29.376Z,10.63
2022-09-11T18:22:00.729Z,9.38
2022-09-11T18:24:32.555Z,11.65
2022-09-11T18:27:03.535Z,10.98
2022-09-11T18:29:33.920Z,12.48
2022-09-11T18:32:04.819Z,12.48
2022-09-11T18:34:35.484Z,10.05
2022-09-11T18:37:05.985Z,9.35
2022-09-11T18:39:36.511Z,10.80
2022-09-11T18:42:08.266Z,10.48
2022-09-11T18:44:38.719Z,11.20
2022-09-11T18:47:09.464Z,11.07
2022-09-11T18:49:39.525Z,11.15
2022-09-11T18:52:10.008Z,13.13
2022-09-11T18:54:40.757Z,10.35
2022-09-11T18:57:11.206Z,12.27
2022-09-11T18:59:41.153Z,11.48
2022-09-11T19:02:12.198Z,14.93
2022-09-11T19:04:42.791Z,9.75
2022-09-11T19:07:14.655Z,11.38
2022-09-11T19:12:17.690Z,10.07
2022-09-11T19:14:49.882Z,8.88
2022-09-11T19:17:20.791Z,10.70
2022-09-11T19:19:50.760Z,9.02
2022-09-11T19:22:23.977Z,9.68
2022-09-11T19:24:54.575Z,9.73
2022-09-11T19:27:27.481Z,9.98
2022-09-11T19:29:58.152Z,13.23
2022-09-11T19:32:28.076Z,12.45
2022-09-11T19:35:00.161Z,10.07
2022-09-11T19:37:30.933Z,10.45
2022-09-11T19:40:01.789Z,12.02
2022-09-11T19:42:32.350Z,11.65
2022-09-11T19:45:02.354Z,9.27
2022-09-11T19:47:32.247Z,9.68
2022-09-11T19:50:02.159Z,8.82
2022-09-11T19:52:33.277Z,9.13
2022-09-11T19:55:06.020Z,10.77
2022-09-11T19:57:36.143Z,9.60
2022-09-11T20:00:06.514Z,9.48
2022-09-11T20:02:38.007Z,11.60
2022-09-11T20:05:09.359Z,9.27
2022-09-11T20:07:39.628Z,9.45
2022-09-11T20:10:11.069Z,10.52
2022-09-11T20:12:41.767Z,11.18
2022-09-11T20:15:12.331Z,12.40
2022-09-11T20:17:45.591Z,10.10
2022-09-11T20:20:16.098Z,9.40
2022-09-11T20:22:46.487Z,10.07
2022-09-11T20:25:16.829Z,9.13
2022-09-11T20:27:46.692Z,8.15
2022-09-11T20:30:16.554Z,9.15
2022-09-11T20:32:46.556Z,8.63
2022-09-11T20:35:17.051Z,9.38
2022-09-11T20:37:48.089Z,10.50
2022-09-11T20:40:18.799Z,11.60
2022-09-11T20:42:48.815Z,12.10
2022-09-11T20:45:19.129Z,10.27
2022-09-11T20:47:52.943Z,9.48
2022-09-11T20:50:23.576Z,11.88
2022-09-11T20:52:53.889Z,9.15
2022-09-11T20:55:23.963Z,10.13
2022-09-11T20:57:53.842Z,9.57
2022-09-11T21:00:24.083Z,11.52
2022-09-11T21:02:53.897Z,10.43
2022-09-11T21:05:24.140Z,9.07
2022-09-11T21:07:54.110Z,11.02
2022-09-11T21:10:23.999Z,13.00
2022-09-11T21:12:53.865Z,9.77
2022-09-11T21:15:23.841Z,9.85
2022-09-11T21:17:54.281Z,12.23
2022-09-11T21:20:25.386Z,11.10
2022-09-11T21:22:55.508Z,11.77
2022-09-11T21:25:25.799Z,12.57
2022-09-11T21:27:55.881Z,11.52
2022-09-11T21:30:26.520Z,11.13
2022-09-11T21:32:56.466Z,12.50
2022-09-11T21:35:26.440Z,9.35
2022-09-11T21:37:56.278Z,10.80
2022-09-11T21:40:26.676Z,8.10
2022-09-11T21:42:56.591Z,11.60
2022-09-11T21:45:26.983Z,11.45
2022-09-11T21:47:57.088Z,8.82
2022-09-11T21:50:27.433Z,11.88
2022-09-11T21:52:57.412Z,10.93
2022-09-11T21:55:29.308Z,10.23
2022-09-11T21:58:01.281Z,10.02
2022-09-11T22:00:32.485Z,9.55
2022-09-11T22:03:02.949Z,8.52
2022-09-11T22:05:33.732Z,11.77
2022-09-11T22:08:04.461Z,13.55
2022-09-11T22:10:35.046Z,13.27
2022-09-11T22:13:05.151Z,11.32
2022-09-11T22:15:35.157Z,9.10
2022-09-11T22:18:05.460Z,12.88
2022-09-11T22:20:36.592Z,10.20
2022-09-11T22:23:07.949Z,12.43
2022-09-11T22:25:38.819Z,10.82
2022-09-11T22:28:09.051Z,12.85
2022-09-11T22:30:43.664Z,8.68
2022-09-11T22:33:14.350Z,11.93
2022-09-11T22:35:47.751Z,10.63
2022-09-11T22:38:19.667Z,9.70
2022-09-11T22:40:54.905Z,12.63
2022-09-11T22:43:25.479Z,13.82
2022-09-11T22:45:55.955Z,11.05
2022-09-11T22:48:26.176Z,12.45
2022-09-11T22:50:58.258Z,14.18
2022-09-11T22:53:30.420Z,15.57
2022-09-11T22:56:01.225Z,11.82
2022-09-11T22:58:32.887Z,14.27
2022-09-11T23:01:05.252Z,11.40
2022-09-11T23:06:24.344Z,12.13
2022-09-11T23:08:56.322Z,10.20
2022-09-11T23:11:26.990Z,15.63
2022-09-11T23:13:57.672Z,12.63
2022-09-11T23:16:30.930Z,11.48
2022-09-11T23:19:03.660Z,11.80
2022-09-11T23:21:35.883Z,12.85
2022-09-11T23:24:07.541Z,11.45
2022-09-11T23:26:38.361Z,12.68
2022-09-11T23:29:08.534Z,15.45
2022-09-11T23:31:39.379Z,12.25
2022-09-11T23:34:12.350Z,15.38
2022-09-11T23:36:42.987Z,15.07
2022-09-11T23:39:13.198Z,13.57
2022-09-11T23:41:43.051Z,13.38
2022-09-11T23:44:13.143Z,15.38
2022-09-11T23:46:43.560Z,10.75
2022-09-11T23:49:14.502Z,14.30
2022-09-11T23:51:44.566Z,16.90
2022-09-11T23:54:14.451Z,16.05
2022-09-11T23:56:44.295Z,16.77
2022-09-11T23:59:14.229Z,15.45
